sensor_id;sensor_type;location;lat;lon;timestamp;P1;durP1;ratioP1;P2;durP2;ratioP2
60054;SDS011;45930;53.514;55.904;2022-08-06T00:00:03;14.05;;;12.65;;
60054;SDS011;45930;53.514;55.904;2022-08-06T00:01:06;12.95;;;11.75;;
60054;SDS011;45930;53.514;55.904;2022-08-06T00:02:06;13.13;;;11.82;;
60054;SDS011;45930;53.514;55.904;2022-08-06T00:03:08;13.43;;;12.18;;
60054;SDS011;45930;53.514;55.904;2022-08-06T00:04:09;14.65;;;13.18;;
60054;SDS011;45930;53.514;55.904;2022-08-06T00:05:10;14.95;;;13.38;;
60054;SDS011;45930;53.514;55.904;2022-08-06T00:06:11;14.95;;;13.55;;
60054;SDS011;45930;53.514;55.904;2022-08-06T00:07:12;15.13;;;13.70;;
60054;SDS011;45930;53.514;55.904;2022-08-06T00:08:13;13.10;;;11.88;;
60054;SDS011;45930;53.514;55.904;2022-08-06T00:09:14;13.20;;;11.90;;
60054;SDS011;45930;53.514;55.904;2022-08-06T00:10:15;12.98;;;11.68;;
60054;SDS011;45930;53.514;55.904;2022-08-06T00:11:17;13.52;;;12.05;;
60054;SDS011;45930;53.514;55.904;2022-08-06T00:12:18;13.18;;;12.07;;
60054;SDS011;45930;53.514;55.904;2022-08-06T00:13:18;13.40;;;12.10;;
60054;SDS011;45930;53.514;55.904;2022-08-06T00:14:19;13.27;;;11.65;;
60054;SDS011;45930;53.514;55.904;2022-08-06T00:15:20;12.40;;;11.30;;
60054;SDS011;45930;53.514;55.904;2022-08-06T00:16:21;13.13;;;11.93;;
60054;SDS011;45930;53.514;55.904;2022-08-06T00:17:22;12.82;;;11.57;;
60054;SDS011;45930;53.514;55.904;2022-08-06T00:18:23;12.90;;;11.70;;
60054;SDS011;45930;53.514;55.904;2022-08-06T00:19:24;12.48;;;10.98;;
60054;SDS011;45930;53.514;55.904;2022-08-06T00:20:25;12.95;;;11.73;;
60054;SDS011;45930;53.514;55.904;2022-08-06T00:21:26;13.25;;;12.02;;
60054;SDS011;45930;53.514;55.904;2022-08-06T00:22:27;12.43;;;11.20;;
60054;SDS011;45930;53.514;55.904;2022-08-06T00:23:28;11.70;;;10.63;;
60054;SDS011;45930;53.514;55.904;2022-08-06T00:24:29;12.25;;;11.15;;
60054;SDS011;45930;53.514;55.904;2022-08-06T00:25:30;12.82;;;11.52;;
60054;SDS011;45930;53.514;55.904;2022-08-06T00:26:30;12.93;;;11.05;;
60054;SDS011;45930;53.514;55.904;2022-08-06T00:27:31;13.13;;;11.63;;
60054;SDS011;45930;53.514;55.904;2022-08-06T00:28:32;12.48;;;11.27;;
60054;SDS011;45930;53.514;55.904;2022-08-06T00:29:33;11.98;;;10.85;;
60054;SDS011;45930;53.514;55.904;2022-08-06T00:30:34;12.98;;;11.70;;
60054;SDS011;45930;53.514;55.904;2022-08-06T00:31:35;13.48;;;11.95;;
60054;SDS011;45930;53.514;55.904;2022-08-06T00:32:36;12.73;;;11.52;;
60054;SDS011;45930;53.514;55.904;2022-08-06T00:33:37;12.90;;;11.05;;
60054;SDS011;45930;53.514;55.904;2022-08-06T00:34:42;13.98;;;11.85;;
60054;SDS011;45930;53.514;55.904;2022-08-06T00:35:43;13.70;;;12.30;;
60054;SDS011;45930;53.514;55.904;2022-08-06T00:36:44;14.35;;;12.85;;
60054;SDS011;45930;53.514;55.904;2022-08-06T00:37:45;13.85;;;12.43;;
60054;SDS011;45930;53.514;55.904;2022-08-06T00:38:46;15.65;;;14.10;;
60054;SDS011;45930;53.514;55.904;2022-08-06T00:39:46;13.80;;;12.68;;
60054;SDS011;45930;53.514;55.904;2022-08-06T00:40:50;14.52;;;13.23;;
60054;SDS011;45930;53.514;55.904;2022-08-06T00:41:52;14.05;;;12.68;;
60054;SDS011;45930;53.514;55.904;2022-08-06T00:42:53;13.80;;;12.60;;
60054;SDS011;45930;53.514;55.904;2022-08-06T00:43:56;14.77;;;13.27;;
60054;SDS011;45930;53.514;55.904;2022-08-06T00:44:57;14.93;;;12.82;;
60054;SDS011;45930;53.514;55.904;2022-08-06T00:45:59;12.80;;;11.60;;
60054;SDS011;45930;53.514;55.904;2022-08-06T00:47:00;13.45;;;12.23;;
60054;SDS011;45930;53.514;55.904;2022-08-06T00:48:01;13.38;;;11.95;;
60054;SDS011;45930;53.514;55.904;2022-08-06T00:49:02;13.55;;;12.25;;
60054;SDS011;45930;53.514;55.904;2022-08-06T00:50:03;13.63;;;12.23;;
60054;SDS011;45930;53.514;55.904;2022-08-06T00:51:04;14.23;;;12.85;;
60054;SDS011;45930;53.514;55.904;2022-08-06T00:52:05;13.30;;;12.00;;
60054;SDS011;45930;53.514;55.904;2022-08-06T00:53:06;13.20;;;11.90;;
60054;SDS011;45930;53.514;55.904;2022-08-06T00:54:07;12.95;;;11.75;;
60054;SDS011;45930;53.514;55.904;2022-08-06T00:55:08;14.20;;;12.07;;
60054;SDS011;45930;53.514;55.904;2022-08-06T00:56:08;13.25;;;12.02;;
60054;SDS011;45930;53.514;55.904;2022-08-06T00:57:09;14.38;;;12.93;;
60054;SDS011;45930;53.514;55.904;2022-08-06T00:58:10;14.35;;;12.85;;
60054;SDS011;45930;53.514;55.904;2022-08-06T00:59:11;17.45;;;13.52;;
60054;SDS011;45930;53.514;55.904;2022-08-06T01:00:12;16.13;;;12.80;;
60054;SDS011;45930;53.514;55.904;2022-08-06T01:01:13;12.40;;;11.20;;
60054;SDS011;45930;53.514;55.904;2022-08-06T01:02:14;14.80;;;13.27;;
60054;SDS011;45930;53.514;55.904;2022-08-06T01:03:14;16.15;;;14.15;;
60054;SDS011;45930;53.514;55.904;2022-08-06T01:04:17;13.70;;;12.20;;
60054;SDS011;45930;53.514;55.904;2022-08-06T01:05:18;13.40;;;12.15;;
60054;SDS011;45930;53.514;55.904;2022-08-06T01:06:19;13.50;;;12.20;;
60054;SDS011;45930;53.514;55.904;2022-08-06T01:07:20;16.30;;;11.80;;
60054;SDS011;45930;53.514;55.904;2022-08-06T01:08:21;13.07;;;11.55;;
60054;SDS011;45930;53.514;55.904;2022-08-06T01:09:22;13.07;;;11.77;;
60054;SDS011;45930;53.514;55.904;2022-08-06T01:10:23;12.60;;;11.48;;
60054;SDS011;45930;53.514;55.904;2022-08-06T01:11:24;13.98;;;12.50;;
60054;SDS011;45930;53.514;55.904;2022-08-06T01:12:25;12.77;;;11.57;;
60054;SDS011;45930;53.514;55.904;2022-08-06T01:13:26;13.20;;;11.90;;
60054;SDS011;45930;53.514;55.904;2022-08-06T01:14:27;13.38;;;12.18;;
60054;SDS011;45930;53.514;55.904;2022-08-06T01:15:28;14.18;;;12.80;;
60054;SDS011;45930;53.514;55.904;2022-08-06T01:16:33;14.25;;;12.75;;
60054;SDS011;45930;53.514;55.904;2022-08-06T01:20:02;15.32;;;13.90;;
60054;SDS011;45930;53.514;55.904;2022-08-06T01:21:45;16.17;;;14.43;;
60054;SDS011;45930;53.514;55.904;2022-08-06T01:23:02;15.25;;;13.85;;
60054;SDS011;45930;53.514;55.904;2022-08-06T01:24:33;16.42;;;14.68;;
60054;SDS011;45930;53.514;55.904;2022-08-06T01:29:29;15.07;;;13.55;;
60054;SDS011;45930;53.514;55.904;2022-08-06T01:30:38;15.48;;;14.18;;
60054;SDS011;45930;53.514;55.904;2022-08-06T01:31:46;14.80;;;13.50;;
60054;SDS011;45930;53.514;55.904;2022-08-06T01:32:54;15.55;;;14.05;;
60054;SDS011;45930;53.514;55.904;2022-08-06T01:34:07;14.90;;;13.38;;
60054;SDS011;45930;53.514;55.904;2022-08-06T01:35:21;15.93;;;14.32;;
60054;SDS011;45930;53.514;55.904;2022-08-06T01:36:35;14.85;;;13.35;;
60054;SDS011;45930;53.514;55.904;2022-08-06T01:37:42;15.32;;;13.88;;
60054;SDS011;45930;53.514;55.904;2022-08-06T01:38:51;14.35;;;12.68;;
60054;SDS011;45930;53.514;55.904;2022-08-06T01:39:55;13.98;;;12.65;;
60054;SDS011;45930;53.514;55.904;2022-08-06T01:41:00;14.10;;;12.60;;
60054;SDS011;45930;53.514;55.904;2022-08-06T01:42:05;14.45;;;13.25;;
60054;SDS011;45930;53.514;55.904;2022-08-06T01:43:09;15.27;;;13.70;;
60054;SDS011;45930;53.514;55.904;2022-08-06T01:44:15;13.27;;;12.07;;
60054;SDS011;45930;53.514;55.904;2022-08-06T01:45:17;15.63;;;14.15;;
60054;SDS011;45930;53.514;55.904;2022-08-06T01:46:20;13.93;;;12.52;;
60054;SDS011;45930;53.514;55.904;2022-08-06T01:47:22;13.93;;;12.50;;
60054;SDS011;45930;53.514;55.904;2022-08-06T01:48:27;14.13;;;12.77;;
60054;SDS011;45930;53.514;55.904;2022-08-06T01:49:29;13.85;;;12.43;;
60054;SDS011;45930;53.514;55.904;2022-08-06T01:50:35;14.10;;;12.27;;
60054;SDS011;45930;53.514;55.904;2022-08-06T01:51:40;13.77;;;12.38;;
60054;SDS011;45930;53.514;55.904;2022-08-06T01:52:42;15.63;;;12.73;;
60054;SDS011;45930;53.514;55.904;2022-08-06T01:53:43;13.85;;;12.55;;
60054;SDS011;45930;53.514;55.904;2022-08-06T01:54:46;14.55;;;13.02;;
60054;SDS011;45930;53.514;55.904;2022-08-06T01:55:51;14.50;;;13.05;;
60054;SDS011;45930;53.514;55.904;2022-08-06T01:56:54;14.70;;;12.50;;
60054;SDS011;45930;53.514;55.904;2022-08-06T01:57:59;13.65;;;12.45;;
60054;SDS011;45930;53.514;55.904;2022-08-06T01:59:03;14.40;;;12.95;;
60054;SDS011;45930;53.514;55.904;2022-08-06T02:00:06;14.75;;;13.45;;
60054;SDS011;45930;53.514;55.904;2022-08-06T02:01:08;15.27;;;13.88;;
60054;SDS011;45930;53.514;55.904;2022-08-06T02:02:15;14.27;;;12.80;;
60054;SDS011;45930;53.514;55.904;2022-08-06T02:03:20;16.63;;;13.68;;
60054;SDS011;45930;53.514;55.904;2022-08-06T02:04:29;14.23;;;12.98;;
60054;SDS011;45930;53.514;55.904;2022-08-06T02:05:34;15.85;;;12.95;;
60054;SDS011;45930;53.514;55.904;2022-08-06T02:06:39;14.73;;;13.10;;
60054;SDS011;45930;53.514;55.904;2022-08-06T02:07:45;13.65;;;12.25;;
60054;SDS011;45930;53.514;55.904;2022-08-06T02:08:48;14.40;;;13.02;;
60054;SDS011;45930;53.514;55.904;2022-08-06T02:09:52;15.88;;;13.15;;
60054;SDS011;45930;53.514;55.904;2022-08-06T02:10:54;13.57;;;12.43;;
60054;SDS011;45930;53.514;55.904;2022-08-06T02:12:17;16.42;;;13.70;;
60054;SDS011;45930;53.514;55.904;2022-08-06T02:13:22;14.07;;;12.68;;
60054;SDS011;45930;53.514;55.904;2022-08-06T02:14:25;13.38;;;12.07;;
60054;SDS011;45930;53.514;55.904;2022-08-06T02:15:29;14.25;;;12.80;;
60054;SDS011;45930;53.514;55.904;2022-08-06T02:16:37;14.82;;;13.35;;
60054;SDS011;45930;53.514;55.904;2022-08-06T02:17:42;14.38;;;12.98;;
60054;SDS011;45930;53.514;55.904;2022-08-06T02:18:46;14.30;;;12.90;;
60054;SDS011;45930;53.514;55.904;2022-08-06T02:19:50;14.38;;;13.07;;
60054;SDS011;45930;53.514;55.904;2022-08-06T02:20:52;13.65;;;12.25;;
60054;SDS011;45930;53.514;55.904;2022-08-06T02:21:55;12.98;;;11.88;;
60054;SDS011;45930;53.514;55.904;2022-08-06T02:22:57;13.10;;;11.90;;
60054;SDS011;45930;53.514;55.904;2022-08-06T02:24:02;13.73;;;12.45;;
60054;SDS011;45930;53.514;55.904;2022-08-06T02:25:08;14.10;;;12.63;;
60054;SDS011;45930;53.514;55.904;2022-08-06T02:26:12;13.10;;;11.98;;
60054;SDS011;45930;53.514;55.904;2022-08-06T02:27:15;13.40;;;12.15;;
60054;SDS011;45930;53.514;55.904;2022-08-06T02:28:19;13.05;;;11.38;;
60054;SDS011;45930;53.514;55.904;2022-08-06T02:29:22;13.75;;;12.35;;
60054;SDS011;45930;53.514;55.904;2022-08-06T02:30:28;12.32;;;11.00;;
60054;SDS011;45930;53.514;55.904;2022-08-06T02:31:32;14.77;;;12.40;;
60054;SDS011;45930;53.514;55.904;2022-08-06T02:32:33;13.55;;;12.10;;
60054;SDS011;45930;53.514;55.904;2022-08-06T02:33:34;12.98;;;11.77;;
60054;SDS011;45930;53.514;55.904;2022-08-06T02:34:36;13.00;;;11.80;;
60054;SDS011;45930;53.514;55.904;2022-08-06T02:35:39;13.65;;;12.20;;
60054;SDS011;45930;53.514;55.904;2022-08-06T02:36:49;13.05;;;11.68;;
60054;SDS011;45930;53.514;55.904;2022-08-06T02:38:00;13.90;;;10.85;;
60054;SDS011;45930;53.514;55.904;2022-08-06T02:40:14;11.38;;;10.48;;
60054;SDS011;45930;53.514;55.904;2022-08-06T02:41:30;12.10;;;10.80;;
60054;SDS011;45930;53.514;55.904;2022-08-06T02:42:38;12.35;;;11.25;;
60054;SDS011;45930;53.514;55.904;2022-08-06T02:43:53;12.55;;;11.27;;
60054;SDS011;45930;53.514;55.904;2022-08-06T02:46:11;12.07;;;10.98;;
60054;SDS011;45930;53.514;55.904;2022-08-06T02:48:47;13.63;;;12.02;;
60054;SDS011;45930;53.514;55.904;2022-08-06T02:49:53;13.40;;;11.73;;
60054;SDS011;45930;53.514;55.904;2022-08-06T02:50:57;13.77;;;12.48;;
60054;SDS011;45930;53.514;55.904;2022-08-06T02:52:06;17.77;;;13.70;;
60054;SDS011;45930;53.514;55.904;2022-08-06T02:53:14;13.60;;;12.20;;
60054;SDS011;45930;53.514;55.904;2022-08-06T02:54:28;13.63;;;12.23;;
60054;SDS011;45930;53.514;55.904;2022-08-06T02:55:35;14.77;;;13.02;;
60054;SDS011;45930;53.514;55.904;2022-08-06T02:56:41;16.33;;;12.82;;
60054;SDS011;45930;53.514;55.904;2022-08-06T02:58:28;16.58;;;13.20;;
60054;SDS011;45930;53.514;55.904;2022-08-06T02:59:24;14.48;;;12.70;;
60054;SDS011;45930;53.514;55.904;2022-08-06T03:00:29;15.40;;;13.43;;
60054;SDS011;45930;53.514;55.904;2022-08-06T03:01:33;16.02;;;13.07;;
60054;SDS011;45930;53.514;55.904;2022-08-06T03:02:38;14.68;;;13.38;;
60054;SDS011;45930;53.514;55.904;2022-08-06T03:03:42;16.63;;;14.00;;
60054;SDS011;45930;53.514;55.904;2022-08-06T03:04:47;14.73;;;13.32;;
60054;SDS011;45930;53.514;55.904;2022-08-06T03:05:49;14.40;;;12.63;;
60054;SDS011;45930;53.514;55.904;2022-08-06T03:06:52;15.00;;;13.60;;
60054;SDS011;45930;53.514;55.904;2022-08-06T03:07:55;15.82;;;13.98;;
60054;SDS011;45930;53.514;55.904;2022-08-06T03:08:59;14.88;;;13.45;;
60054;SDS011;45930;53.514;55.904;2022-08-06T03:10:02;15.25;;;13.68;;
60054;SDS011;45930;53.514;55.904;2022-08-06T03:11:04;15.55;;;13.98;;
60054;SDS011;45930;53.514;55.904;2022-08-06T03:12:06;16.48;;;13.40;;
60054;SDS011;45930;53.514;55.904;2022-08-06T03:13:08;14.93;;;13.30;;
60054;SDS011;45930;53.514;55.904;2022-08-06T03:14:11;13.20;;;11.90;;
60054;SDS011;45930;53.514;55.904;2022-08-06T03:15:13;20.20;;;12.45;;
60054;SDS011;45930;53.514;55.904;2022-08-06T03:16:18;14.80;;;12.93;;
60054;SDS011;45930;53.514;55.904;2022-08-06T03:17:21;12.50;;;11.05;;
60054;SDS011;45930;53.514;55.904;2022-08-06T03:18:23;13.27;;;11.88;;
60054;SDS011;45930;53.514;55.904;2022-08-06T03:19:25;14.80;;;11.07;;
60054;SDS011;45930;53.514;55.904;2022-08-06T03:20:28;13.13;;;11.75;;
60054;SDS011;45930;53.514;55.904;2022-08-06T03:21:30;12.45;;;11.18;;
60054;SDS011;45930;53.514;55.904;2022-08-06T03:22:33;12.73;;;11.43;;
60054;SDS011;45930;53.514;55.904;2022-08-06T03:23:36;11.95;;;10.65;;
60054;SDS011;45930;53.514;55.904;2022-08-06T03:24:38;14.80;;;12.05;;
60054;SDS011;45930;53.514;55.904;2022-08-06T03:25:40;11.98;;;10.93;;
60054;SDS011;45930;53.514;55.904;2022-08-06T03:26:44;12.55;;;11.07;;
60054;SDS011;45930;53.514;55.904;2022-08-06T03:27:45;12.20;;;10.80;;
60054;SDS011;45930;53.514;55.904;2022-08-06T03:28:47;12.23;;;11.13;;
60054;SDS011;45930;53.514;55.904;2022-08-06T03:29:49;14.07;;;11.70;;
60054;SDS011;45930;53.514;55.904;2022-08-06T03:30:53;12.50;;;10.52;;
60054;SDS011;45930;53.514;55.904;2022-08-06T03:31:55;12.18;;;10.68;;
60054;SDS011;45930;53.514;55.904;2022-08-06T03:32:56;13.02;;;11.75;;
60054;SDS011;45930;53.514;55.904;2022-08-06T03:33:59;12.55;;;11.23;;
60054;SDS011;45930;53.514;55.904;2022-08-06T03:35:00;10.95;;;9.77;;
60054;SDS011;45930;53.514;55.904;2022-08-06T03:36:03;13.52;;;10.73;;
60054;SDS011;45930;53.514;55.904;2022-08-06T03:37:06;14.52;;;10.35;;
60054;SDS011;45930;53.514;55.904;2022-08-06T03:38:08;14.45;;;10.40;;
60054;SDS011;45930;53.514;55.904;2022-08-06T03:39:10;15.00;;;10.52;;
60054;SDS011;45930;53.514;55.904;2022-08-06T03:40:14;13.43;;;11.02;;
60054;SDS011;45930;53.514;55.904;2022-08-06T03:41:17;13.57;;;11.65;;
60054;SDS011;45930;53.514;55.904;2022-08-06T03:42:19;14.95;;;11.68;;
60054;SDS011;45930;53.514;55.904;2022-08-06T03:43:19;15.45;;;11.57;;
60054;SDS011;45930;53.514;55.904;2022-08-06T03:44:20;16.45;;;12.43;;
60054;SDS011;45930;53.514;55.904;2022-08-06T03:45:22;21.05;;;13.23;;
60054;SDS011;45930;53.514;55.904;2022-08-06T03:46:48;14.05;;;12.48;;
60054;SDS011;45930;53.514;55.904;2022-08-06T03:47:54;18.42;;;12.80;;
60054;SDS011;45930;53.514;55.904;2022-08-06T03:48:57;17.45;;;13.40;;
60054;SDS011;45930;53.514;55.904;2022-08-06T03:50:04;18.23;;;13.00;;
60054;SDS011;45930;53.514;55.904;2022-08-06T03:51:12;13.38;;;11.88;;
60054;SDS011;45930;53.514;55.904;2022-08-06T03:52:16;16.80;;;12.32;;
60054;SDS011;45930;53.514;55.904;2022-08-06T03:53:22;18.48;;;11.98;;
60054;SDS011;45930;53.514;55.904;2022-08-06T03:54:26;16.33;;;12.38;;
60054;SDS011;45930;53.514;55.904;2022-08-06T03:55:32;14.05;;;11.60;;
60054;SDS011;45930;53.514;55.904;2022-08-06T03:56:35;14.45;;;10.60;;
60054;SDS011;45930;53.514;55.904;2022-08-06T03:57:41;14.07;;;11.63;;
60054;SDS011;45930;53.514;55.904;2022-08-06T03:58:45;14.15;;;11.18;;
60054;SDS011;45930;53.514;55.904;2022-08-06T03:59:50;13.77;;;10.80;;
60054;SDS011;45930;53.514;55.904;2022-08-06T04:00:59;15.38;;;12.10;;
60054;SDS011;45930;53.514;55.904;2022-08-06T04:02:02;14.77;;;12.32;;
60054;SDS011;45930;53.514;55.904;2022-08-06T04:03:04;16.50;;;12.02;;
60054;SDS011;45930;53.514;55.904;2022-08-06T04:04:08;23.92;;;12.35;;
60054;SDS011;45930;53.514;55.904;2022-08-06T04:05:10;16.50;;;13.00;;
60054;SDS011;45930;53.514;55.904;2022-08-06T04:06:13;14.93;;;12.60;;
60054;SDS011;45930;53.514;55.904;2022-08-06T04:07:16;25.75;;;12.65;;
60054;SDS011;45930;53.514;55.904;2022-08-06T04:08:18;16.92;;;12.52;;
60054;SDS011;45930;53.514;55.904;2022-08-06T04:09:20;19.27;;;13.25;;
60054;SDS011;45930;53.514;55.904;2022-08-06T04:10:27;15.55;;;11.10;;
60054;SDS011;45930;53.514;55.904;2022-08-06T04:11:30;17.33;;;12.82;;
60054;SDS011;45930;53.514;55.904;2022-08-06T04:12:32;16.50;;;13.90;;
60054;SDS011;45930;53.514;55.904;2022-08-06T04:13:33;16.92;;;12.70;;
60054;SDS011;45930;53.514;55.904;2022-08-06T04:14:36;18.17;;;12.65;;
60054;SDS011;45930;53.514;55.904;2022-08-06T04:15:38;20.45;;;13.52;;
60054;SDS011;45930;53.514;55.904;2022-08-06T04:16:39;15.20;;;12.48;;
60054;SDS011;45930;53.514;55.904;2022-08-06T04:17:41;16.70;;;12.23;;
60054;SDS011;45930;53.514;55.904;2022-08-06T04:18:46;17.15;;;12.65;;
60054;SDS011;45930;53.514;55.904;2022-08-06T04:19:48;17.20;;;12.65;;
60054;SDS011;45930;53.514;55.904;2022-08-06T04:20:53;19.33;;;12.40;;
60054;SDS011;45930;53.514;55.904;2022-08-06T04:21:57;15.52;;;12.38;;
60054;SDS011;45930;53.514;55.904;2022-08-06T04:22:58;17.80;;;12.23;;
60054;SDS011;45930;53.514;55.904;2022-08-06T04:23:59;17.60;;;12.48;;
60054;SDS011;45930;53.514;55.904;2022-08-06T04:25:00;23.92;;;13.02;;
60054;SDS011;45930;53.514;55.904;2022-08-06T04:26:01;16.27;;;12.52;;
60054;SDS011;45930;53.514;55.904;2022-08-06T04:27:04;16.63;;;12.30;;
60054;SDS011;45930;53.514;55.904;2022-08-06T04:28:07;19.52;;;11.85;;
60054;SDS011;45930;53.514;55.904;2022-08-06T04:29:14;19.42;;;12.57;;
60054;SDS011;45930;53.514;55.904;2022-08-06T04:30:17;17.58;;;13.07;;
60054;SDS011;45930;53.514;55.904;2022-08-06T04:31:18;13.32;;;11.73;;
60054;SDS011;45930;53.514;55.904;2022-08-06T04:32:21;16.73;;;12.13;;
60054;SDS011;45930;53.514;55.904;2022-08-06T04:33:23;18.80;;;11.80;;
60054;SDS011;45930;53.514;55.904;2022-08-06T04:34:26;14.73;;;12.32;;
60054;SDS011;45930;53.514;55.904;2022-08-06T04:35:29;15.32;;;11.40;;
60054;SDS011;45930;53.514;55.904;2022-08-06T04:36:30;16.55;;;11.38;;
60054;SDS011;45930;53.514;55.904;2022-08-06T04:37:32;14.13;;;11.07;;
60054;SDS011;45930;53.514;55.904;2022-08-06T04:38:34;12.85;;;10.77;;
60054;SDS011;45930;53.514;55.904;2022-08-06T04:39:35;12.20;;;10.88;;
60054;SDS011;45930;53.514;55.904;2022-08-06T04:40:39;15.77;;;11.10;;
60054;SDS011;45930;53.514;55.904;2022-08-06T04:41:42;16.17;;;11.90;;
60054;SDS011;45930;53.514;55.904;2022-08-06T04:42:43;15.85;;;11.38;;
60054;SDS011;45930;53.514;55.904;2022-08-06T04:43:45;12.23;;;10.95;;
60054;SDS011;45930;53.514;55.904;2022-08-06T04:44:47;19.45;;;11.20;;
60054;SDS011;45930;53.514;55.904;2022-08-06T04:45:48;14.75;;;11.90;;
60054;SDS011;45930;53.514;55.904;2022-08-06T04:46:50;21.17;;;12.48;;
60054;SDS011;45930;53.514;55.904;2022-08-06T04:47:51;17.83;;;12.25;;
60054;SDS011;45930;53.514;55.904;2022-08-06T04:48:53;17.35;;;10.90;;
60054;SDS011;45930;53.514;55.904;2022-08-06T04:49:54;15.75;;;11.57;;
60054;SDS011;45930;53.514;55.904;2022-08-06T04:50:55;18.20;;;16.00;;
60054;SDS011;45930;53.514;55.904;2022-08-06T04:51:56;22.00;;;15.65;;
60054;SDS011;45930;53.514;55.904;2022-08-06T04:54:11;13.82;;;10.38;;
60054;SDS011;45930;53.514;55.904;2022-08-06T04:55:12;14.32;;;11.52;;
60054;SDS011;45930;53.514;55.904;2022-08-06T04:56:13;15.57;;;11.65;;
60054;SDS011;45930;53.514;55.904;2022-08-06T04:57:14;13.85;;;10.80;;
60054;SDS011;45930;53.514;55.904;2022-08-06T04:58:16;15.52;;;10.30;;
60054;SDS011;45930;53.514;55.904;2022-08-06T04:59:17;12.88;;;10.27;;
60054;SDS011;45930;53.514;55.904;2022-08-06T05:00:18;12.43;;;9.45;;
60054;SDS011;45930;53.514;55.904;2022-08-06T05:01:19;10.77;;;9.68;;
60054;SDS011;45930;53.514;55.904;2022-08-06T05:02:20;15.85;;;9.63;;
60054;SDS011;45930;53.514;55.904;2022-08-06T05:03:21;17.23;;;10.00;;
60054;SDS011;45930;53.514;55.904;2022-08-06T05:04:21;12.60;;;8.82;;
60054;SDS011;45930;53.514;55.904;2022-08-06T05:05:23;13.85;;;9.80;;
60054;SDS011;45930;53.514;55.904;2022-08-06T05:08:00;13.77;;;10.30;;
60054;SDS011;45930;53.514;55.904;2022-08-06T05:09:08;14.57;;;9.82;;
60054;SDS011;45930;53.514;55.904;2022-08-06T05:10:11;13.38;;;10.50;;
60054;SDS011;45930;53.514;55.904;2022-08-06T05:11:16;11.70;;;9.70;;
60054;SDS011;45930;53.514;55.904;2022-08-06T05:12:31;15.15;;;8.93;;
60054;SDS011;45930;53.514;55.904;2022-08-06T05:13:35;13.48;;;8.95;;
60054;SDS011;45930;53.514;55.904;2022-08-06T05:14:51;15.88;;;8.88;;
60054;SDS011;45930;53.514;55.904;2022-08-06T05:16:13;12.48;;;8.63;;
60054;SDS011;45930;53.514;55.904;2022-08-06T05:17:17;9.32;;;8.50;;
60054;SDS011;45930;53.514;55.904;2022-08-06T05:18:27;13.32;;;8.43;;
60054;SDS011;45930;53.514;55.904;2022-08-06T05:19:34;11.75;;;8.57;;
60054;SDS011;45930;53.514;55.904;2022-08-06T05:20:39;9.38;;;7.53;;
60054;SDS011;45930;53.514;55.904;2022-08-06T05:21:43;15.70;;;8.40;;
60054;SDS011;45930;53.514;55.904;2022-08-06T05:22:49;12.48;;;8.23;;
60054;SDS011;45930;53.514;55.904;2022-08-06T05:23:54;13.50;;;8.30;;
60054;SDS011;45930;53.514;55.904;2022-08-06T05:24:55;10.07;;;8.20;;
60054;SDS011;45930;53.514;55.904;2022-08-06T05:25:56;10.10;;;8.45;;
60054;SDS011;45930;53.514;55.904;2022-08-06T05:26:57;11.75;;;8.23;;
60054;SDS011;45930;53.514;55.904;2022-08-06T05:27:59;12.18;;;9.05;;
60054;SDS011;45930;53.514;55.904;2022-08-06T05:29:00;10.35;;;8.75;;
60054;SDS011;45930;53.514;55.904;2022-08-06T05:30:01;12.10;;;8.52;;
60054;SDS011;45930;53.514;55.904;2022-08-06T05:31:05;9.98;;;8.43;;
60054;SDS011;45930;53.514;55.904;2022-08-06T05:32:06;11.73;;;7.85;;
60054;SDS011;45930;53.514;55.904;2022-08-06T05:33:07;10.80;;;8.15;;
60054;SDS011;45930;53.514;55.904;2022-08-06T05:34:09;13.65;;;8.38;;
60054;SDS011;45930;53.514;55.904;2022-08-06T05:35:11;15.52;;;8.07;;
60054;SDS011;45930;53.514;55.904;2022-08-06T05:36:12;10.52;;;7.65;;
60054;SDS011;45930;53.514;55.904;2022-08-06T05:37:13;11.82;;;8.27;;
60054;SDS011;45930;53.514;55.904;2022-08-06T05:38:14;10.77;;;7.95;;
60054;SDS011;45930;53.514;55.904;2022-08-06T05:39:15;13.88;;;8.23;;
60054;SDS011;45930;53.514;55.904;2022-08-06T05:40:16;15.35;;;8.35;;
60054;SDS011;45930;53.514;55.904;2022-08-06T05:41:21;11.18;;;7.95;;
60054;SDS011;45930;53.514;55.904;2022-08-06T05:42:21;10.93;;;7.75;;
60054;SDS011;45930;53.514;55.904;2022-08-06T05:43:23;13.35;;;7.30;;
60054;SDS011;45930;53.514;55.904;2022-08-06T05:44:25;10.65;;;7.55;;
60054;SDS011;45930;53.514;55.904;2022-08-06T05:45:26;11.23;;;7.75;;
60054;SDS011;45930;53.514;55.904;2022-08-06T05:46:31;11.70;;;7.80;;
60054;SDS011;45930;53.514;55.904;2022-08-06T05:47:35;13.55;;;7.05;;
60054;SDS011;45930;53.514;55.904;2022-08-06T05:48:41;12.63;;;7.32;;
60054;SDS011;45930;53.514;55.904;2022-08-06T05:49:47;10.60;;;7.15;;
60054;SDS011;45930;53.514;55.904;2022-08-06T05:50:54;12.77;;;7.55;;
60054;SDS011;45930;53.514;55.904;2022-08-06T05:52:02;10.82;;;7.38;;
60054;SDS011;45930;53.514;55.904;2022-08-06T05:53:21;11.65;;;7.68;;
60054;SDS011;45930;53.514;55.904;2022-08-06T05:55:56;12.45;;;8.93;;
60054;SDS011;45930;53.514;55.904;2022-08-06T05:57:10;13.90;;;9.18;;
60054;SDS011;45930;53.514;55.904;2022-08-06T05:58:23;12.38;;;9.18;;
60054;SDS011;45930;53.514;55.904;2022-08-06T05:59:29;12.57;;;9.05;;
60054;SDS011;45930;53.514;55.904;2022-08-06T06:00:33;12.40;;;8.80;;
60054;SDS011;45930;53.514;55.904;2022-08-06T06:01:35;14.30;;;8.02;;
60054;SDS011;45930;53.514;55.904;2022-08-06T06:02:39;11.93;;;8.15;;
60054;SDS011;45930;53.514;55.904;2022-08-06T06:03:43;10.00;;;7.93;;
60054;SDS011;45930;53.514;55.904;2022-08-06T06:04:45;10.02;;;8.07;;
60054;SDS011;45930;53.514;55.904;2022-08-06T06:05:47;12.95;;;8.85;;
60054;SDS011;45930;53.514;55.904;2022-08-06T06:06:48;13.27;;;8.70;;
60054;SDS011;45930;53.514;55.904;2022-08-06T06:07:49;13.05;;;8.48;;
60054;SDS011;45930;53.514;55.904;2022-08-06T06:08:52;13.32;;;8.23;;
60054;SDS011;45930;53.514;55.904;2022-08-06T06:09:53;10.98;;;9.20;;
60054;SDS011;45930;53.514;55.904;2022-08-06T06:10:55;14.23;;;9.27;;
60054;SDS011;45930;53.514;55.904;2022-08-06T06:11:57;12.95;;;9.23;;
60054;SDS011;45930;53.514;55.904;2022-08-06T06:12:59;16.02;;;8.75;;
60054;SDS011;45930;53.514;55.904;2022-08-06T06:14:01;9.82;;;8.10;;
60054;SDS011;45930;53.514;55.904;2022-08-06T06:15:03;12.15;;;8.13;;
60054;SDS011;45930;53.514;55.904;2022-08-06T06:16:23;9.20;;;8.25;;
60054;SDS011;45930;53.514;55.904;2022-08-06T06:19:13;13.38;;;7.93;;
60054;SDS011;45930;53.514;55.904;2022-08-06T06:21:37;11.25;;;6.88;;
60054;SDS011;45930;53.514;55.904;2022-08-06T06:22:43;8.52;;;6.78;;
60054;SDS011;45930;53.514;55.904;2022-08-06T06:27:16;10.15;;;7.07;;
60054;SDS011;45930;53.514;55.904;2022-08-06T06:28:37;13.75;;;8.10;;
60054;SDS011;45930;53.514;55.904;2022-08-06T06:30:06;9.88;;;7.60;;